Terminal Aerodrome Forecast
Issued by NWS Grand Forks, ND

Home | Current Version | Previous Version | Graphics & Text | Print | Product List | Glossary On
Versions: 1 2 3 4 5 6 7 8 9 10 11 12
000
FTUS43 KFGF 160500
TAFGFK
TAF
KGFK 160520Z 1606/1706 08015KT P6SM BKN080
     FM161100 07018G25KT P6SM OVC050
     FM161800 04022G28KT P6SM OVC050
     FM170200 04013KT P6SM SCT250=

USA.gov is the U.S. government's official web portal to all federal, state and local government web resources and services.